Andesborg — PCLC — position and weather

sailwx.info

Track history (hours):
 
Tides and Currents Weather Stations Pressure Air Temp Water Temp Dewpoint Dewpoint Depression Visibility Wind Speed Wind Dir Waves Ship Positions

Andesborg

Last reported at 2016-Jul-11 08:23 UTC. Time now 2016-Jul-26 08:28 UTC.
Position N 50°55' W 057°52'.
Warning: this ship's position is 15 days out of date.

Length 142 m; draft 8.7 m.

Type: Cargo ship. MMSI: 246797000.

Date/timePositionNaut miles runAvg speedWind from/ knotsBaromVisibWave heightAir tempDewpointWater temp
2016-Jul-11 08:23N 50°55' W 057°52'1113.5
2016-Jul-11 07:34N 51°03' W 057°40'1413.6
2016-Jul-11 06:33N 51°11' W 057°23'  
2016-Jul-05 03:33N 58°43' W 004°21'1414.1
2016-Jul-05 02:33N 58°44' W 003°54'1514.6
2016-Jul-05 01:33N 58°44' W 003°26'1616.1
2016-Jul-05 00:33N 58°39' W 002°57'1312.9
2016-Jul-04 23:33N 58°30' W 002°39'27013.2
2016-Jul-04 03:08N 57°52' E 005°48'813.5
2016-Jul-04 02:32N 57°51' E 006°03'1313.3
2016-Jul-04 01:33N 57°49' E 006°27'1414.0
2016-Jul-04 00:33N 57°47' E 006°53'11813.0
2016-Jul-03 15:26N 57°48' E 010°35'9 9.2
2016-Jul-03 14:26N 57°41' E 010°45'11 1.1
2016-Jul-03 04:33N 57°35' E 011°03'1110.9
2016-Jul-03 03:33N 57°30' E 011°21'1110.9
2016-Jul-03 02:33N 57°21' E 011°30'12610.4
2016-Jul-02 14:27N 55°16' E 011°05'1112.3
2016-Jul-02 13:33N 55°05' E 011°02'1212.0
2016-Jul-02 12:34N 54°54' E 010°54'1211.8
2016-Jul-02 11:34N 54°42' E 010°54'1211.8
2016-Jul-02 10:33N 54°36' E 011°11'1212.3
2016-Jul-02 09:33N 54°31' E 011°30'1211.8
2016-Jul-02 08:33N 54°26' E 011°49'1211.7
2016-Jul-02 07:33N 54°28' E 012°10'1111.4
2016-Jul-02 06:33N 54°38' E 012°18'2412.0
2016-Jul-02 04:33N 54°50' E 012°54'1612.6
2016-Jul-02 03:16N 54°55' E 013°21'1013.2
2016-Jul-02 02:31N 54°58' E 013°37'1212.9
2016-Jul-02 01:33N 55°02' E 013°57'1212.4
2016-Jul-02 00:33N 55°10' E 014°14'1312.7
2016-Jul-01 23:33N 55°20' E 014°28'1312.6
2016-Jul-01 22:33N 55°29' E 014°43'1312.6
2016-Jul-01 21:33N 55°36' E 015°02'1312.7
2016-Jul-01 20:33N 55°42' E 015°22'1312.9
2016-Jul-01 19:33N 55°48' E 015°42'  
Track history (hours):
 
Tides and Currents Weather Stations Pressure Air Temp Water Temp Dewpoint Dewpoint Depression Visibility Wind Speed Wind Dir Waves Ship Positions

Andesborg

Last reported at 2016-Jul-11 08:23 UTC. Time now 2016-Jul-26 08:28 UTC.
Position N 50°55' W 057°52'.
Warning: this ship's position is 15 days out of date.

Length 142 m; draft 8.7 m.

Type: Cargo ship. MMSI: 246797000.

Date/timePositionNaut miles runAvg speedWind from/ knotsBaromVisibWave heightAir tempDewpointWater temp
2016-Jul-11 08:23N 50°55' W 057°52'1113.5
2016-Jul-11 07:34N 51°03' W 057°40'1413.6
2016-Jul-11 06:33N 51°11' W 057°23'  
2016-Jul-05 03:33N 58°43' W 004°21'1414.1
2016-Jul-05 02:33N 58°44' W 003°54'1514.6
2016-Jul-05 01:33N 58°44' W 003°26'1616.1
2016-Jul-05 00:33N 58°39' W 002°57'1312.9
2016-Jul-04 23:33N 58°30' W 002°39'27013.2
2016-Jul-04 03:08N 57°52' E 005°48'813.5
2016-Jul-04 02:32N 57°51' E 006°03'1313.3
2016-Jul-04 01:33N 57°49' E 006°27'1414.0
2016-Jul-04 00:33N 57°47' E 006°53'11813.0
2016-Jul-03 15:26N 57°48' E 010°35'9 9.2
2016-Jul-03 14:26N 57°41' E 010°45'11 1.1
2016-Jul-03 04:33N 57°35' E 011°03'1110.9
2016-Jul-03 03:33N 57°30' E 011°21'1110.9
2016-Jul-03 02:33N 57°21' E 011°30'12610.4
2016-Jul-02 14:27N 55°16' E 011°05'1112.3
2016-Jul-02 13:33N 55°05' E 011°02'1212.0
2016-Jul-02 12:34N 54°54' E 010°54'1211.8
2016-Jul-02 11:34N 54°42' E 010°54'1211.8
2016-Jul-02 10:33N 54°36' E 011°11'1212.3
2016-Jul-02 09:33N 54°31' E 011°30'1211.8
2016-Jul-02 08:33N 54°26' E 011°49'1211.7
2016-Jul-02 07:33N 54°28' E 012°10'1111.4
2016-Jul-02 06:33N 54°38' E 012°18'2412.0
2016-Jul-02 04:33N 54°50' E 012°54'1612.6
2016-Jul-02 03:16N 54°55' E 013°21'1013.2
2016-Jul-02 02:31N 54°58' E 013°37'1212.9
2016-Jul-02 01:33N 55°02' E 013°57'1212.4
2016-Jul-02 00:33N 55°10' E 014°14'1312.7
2016-Jul-01 23:33N 55°20' E 014°28'1312.6
2016-Jul-01 22:33N 55°29' E 014°43'1312.6
2016-Jul-01 21:33N 55°36' E 015°02'1312.7
2016-Jul-01 20:33N 55°42' E 015°22'1312.9
2016-Jul-01 19:33N 55°48' E 015°42'  

Dump ship's entire track history